• Join FlightAware (Why Join?)
  • Login
  • US Flag 
09:40AM EST


 

Airport Tracker/Info


-or-


 

Live Flight TrackerFlight Track Log ✈ TYR790 ✈ 04-Sep-2014 ✈ LROP / OTP - LOWW / VIE

Flight Track Log - Related Links

Times and Time Zones

All times are in EDT time to prevent confusion due to time zone crossing. See the TYR790 flight status page for this flight to view local times or setup timezone preferences in your user account.

Time Position Orientation Groundspeed Altitude Reporting Facility
EDT Latitude Longitude Course Direction KTS MPH feet Rate Location/Type
04:26AM 44.8424 25.4802 302° West  Level Estimated
04:27AM 44.8960 25.3552 301° West  Level Estimated
04:28AM 44.9495 25.2299 301° West  Level Estimated
04:29AM 45.0029 25.1043 301° West  Level Estimated
04:30AM 45.0561 24.9785 301° West  Level Estimated
04:31AM 45.1092 24.8525 301° West  Level Estimated
04:32AM 45.1622 24.7262 301° West  Level Estimated
04:33AM 45.2150 24.5998 301° West  Level Estimated
04:34AM 45.2676 24.4730 301° West  Level Estimated
04:35AM 45.3202 24.3461 301° West  Level Estimated
04:36AM 45.3726 24.2189 300° West  Level Estimated
04:37AM 45.4248 24.0915 300° West  Level Estimated
04:38AM 45.4769 23.9638 300° West  Level Estimated
04:39AM 45.5289 23.8359 300° West  Level Estimated
04:40AM 45.5807 23.7078 300° West  Level Estimated
04:41AM 45.6324 23.5794 300° West  Level Estimated
04:42AM 45.6839 23.4508 300° West  Level Estimated
04:43AM 45.7353 23.3220 300° West  Level Estimated
04:44AM 45.7865 23.1929 300° West  Level Estimated
04:45AM 45.8377 23.0636 300° West  Level Estimated
04:46AM 45.8886 22.9340 300° West  Level Estimated
04:47AM 45.9394 22.8042 299° West  Level Estimated
04:48AM 45.9901 22.6742 299° West  Level Estimated
04:49AM 46.0406 22.5439 299° West  Level Estimated
04:50AM 46.0909 22.4134 299° West  Level Estimated
04:51AM 46.1412 22.2826 299° West  Level Estimated
04:52AM 46.1912 22.1517 299° West  Level Estimated
04:53AM 46.2411 22.0204 299° West  Level Estimated
04:54AM 46.2909 21.8890 299° West  Level Estimated
04:55AM 46.3405 21.7573 299° West  Level Estimated
04:56AM 46.3900 21.6253 299° West  Level Estimated
04:57AM 46.4393 21.4932 298° West  Level Estimated
04:58AM 46.4884 21.3607 298° West  Level Estimated
04:59AM 46.5374 21.2281 298° West  Level Estimated
05:00AM 46.5863 21.0952 298° West  Level Estimated
05:01AM 46.6350 20.9620 298° West  Level Estimated
05:02AM 46.6835 20.8287 298° West  Level Estimated
05:03AM 46.7319 20.6951 298° West  Level Estimated
05:04AM 46.7801 20.5612 298° West  Level Estimated
05:05AM 46.8282 20.4271 298° West  Level Estimated
05:06AM 46.8761 20.2928 298° West  Level Estimated
05:07AM 46.9239 20.1582 297° West  Level Estimated
05:08AM 46.9715 20.0234 297° West  Level Estimated
05:09AM 47.0189 19.8883 297° West  Level Estimated
05:10AM 47.0662 19.7530 297° West  Level Estimated
05:11AM 47.1133 19.6175 297° West  Level Estimated
05:12AM 47.1603 19.4818 297° West  Level Estimated
05:13AM 47.2071 19.3457 297° West  Level Estimated
05:14AM 47.2537 19.2095 297° West  Level Estimated
05:15AM 47.3002 19.0730 297° West  Level Estimated
05:16AM 47.3465 18.9363 297° West  Level Estimated
05:17AM 47.3927 18.7993 297° West  Level Estimated
05:18AM 47.4387 18.6621 296° West  Level Estimated
05:19AM 47.4845 18.5246 296° West  Level Estimated
05:20AM 47.5302 18.3869 296° West  Level Estimated
05:21AM 47.5757 18.2490 296° West  Level Estimated
05:22AM 47.6210 18.1108 296° West  Level Estimated
05:23AM 47.6662 17.9724 296° West  Level Estimated
05:24AM 47.7112 17.8338 296° West  Level Estimated
05:25AM 47.7560 17.6949 296° West  Level Estimated
05:26AM 47.8007 17.5558 296° West  Level Estimated
05:27AM 47.8452 17.4164 295° West  Level Estimated
05:28AM 47.8895 17.2768 295° West  Level Estimated
05:29AM 47.9337 17.1370 295° West  Level Estimated
05:30AM 47.9776 16.9969 295° West  Level Estimated
05:31AM 48.0215 16.8566 295° West  Level Estimated
05:32AM 48.0651 16.7160 295° West  Level Estimated
05:33AM 48.1086 16.5752 295° West  Level Estimated
05:34AM 48.1103 16.5697 295° West  Level Estimated
05:35AM 48.1103 16.5697 North  Level Estimated
05:36AM 48.1103 16.5697 North  Level Estimated
05:37AM 48.1103 16.5697 North  Level Estimated
05:38AM 48.1103 16.5697 North  Level Estimated
05:39AM 48.1103 16.5697 North  Level Estimated
05:40AM 48.1103 16.5697 North  Level Estimated
05:41AM 48.1103 16.5697 North  Level Estimated